Terminal Aerodrome Forecast
Issued by NWS

Home | Current Version | Previous Version | Text Only | Print | Product List | Glossary Off
Versions: 1 2 3 4 5 6 7 8 9 10 11 12 13 14 15

000
FTUS43 KBIS 151132
TAFMOT
TAF
KMOT 151132Z 1512/1612 25009KT P6SM VCSH BKN060 OVC090
     FM151500 27010KT P6SM SCT050
     FM151800 30017G25KT P6SM SKC
     FM152300 28010KT P6SM SKC
     FM160200 24006KT P6SM SKC
     FM161000 21009KT P6SM SKC WS013/26025KT=

USA.gov is the U.S. government's official web portal to all federal, state and local government web resources and services.